sensor_id;sensor_type;location;lat;lon;timestamp;temperature;humidity
19868;DHT22;10096;51.112;6.776;2023-05-07T00:01:18;16.50;1.00
19868;DHT22;10096;51.112;6.776;2023-05-07T00:03:52;16.30;1.00
19868;DHT22;10096;51.112;6.776;2023-05-07T00:06:20;16.30;1.00
19868;DHT22;10096;51.112;6.776;2023-05-07T00:08:48;16.30;38.00
19868;DHT22;10096;51.112;6.776;2023-05-07T00:11:16;16.30;99.90
19868;DHT22;10096;51.112;6.776;2023-05-07T00:13:44;16.30;99.90
19868;DHT22;10096;51.112;6.776;2023-05-07T00:16:15;16.30;99.90
19868;DHT22;10096;51.112;6.776;2023-05-07T00:18:43;16.30;94.60
19868;DHT22;10096;51.112;6.776;2023-05-07T00:21:13;16.40;1.00
19868;DHT22;10096;51.112;6.776;2023-05-07T00:23:41;16.00;1.00
19868;DHT22;10096;51.112;6.776;2023-05-07T00:26:09;16.20;1.00
19868;DHT22;10096;51.112;6.776;2023-05-07T00:28:39;16.10;1.00
19868;DHT22;10096;51.112;6.776;2023-05-07T00:31:07;16.20;1.00
19868;DHT22;10096;51.112;6.776;2023-05-07T00:33:35;16.20;1.00
19868;DHT22;10096;51.112;6.776;2023-05-07T00:36:03;16.10;1.00
19868;DHT22;10096;51.112;6.776;2023-05-07T00:38:36;16.20;1.00
19868;DHT22;10096;51.112;6.776;2023-05-07T00:41:04;16.10;1.00
19868;DHT22;10096;51.112;6.776;2023-05-07T00:43:35;16.20;1.00
19868;DHT22;10096;51.112;6.776;2023-05-07T00:46:03;16.20;1.00
19868;DHT22;10096;51.112;6.776;2023-05-07T00:48:34;16.30;1.00
19868;DHT22;10096;51.112;6.776;2023-05-07T00:51:03;16.10;1.00
19868;DHT22;10096;51.112;6.776;2023-05-07T00:53:35;16.10;1.00
19868;DHT22;10096;51.112;6.776;2023-05-07T00:56:04;16.10;1.00
19868;DHT22;10096;51.112;6.776;2023-05-07T00:58:32;16.10;1.00
19868;DHT22;10096;51.112;6.776;2023-05-07T01:01:00;16.10;1.00
19868;DHT22;10096;51.112;6.776;2023-05-07T01:03:28;16.10;1.00
19868;DHT22;10096;51.112;6.776;2023-05-07T01:05:57;16.20;1.00
19868;DHT22;10096;51.112;6.776;2023-05-07T01:08:29;16.10;1.00
19868;DHT22;10096;51.112;6.776;2023-05-07T01:10:59;16.20;1.00
19868;DHT22;10096;51.112;6.776;2023-05-07T01:13:30;16.10;1.00
19868;DHT22;10096;51.112;6.776;2023-05-07T01:16:01;16.20;1.00
19868;DHT22;10096;51.112;6.776;2023-05-07T01:18:33;16.20;1.00
19868;DHT22;10096;51.112;6.776;2023-05-07T01:21:02;16.20;1.00
19868;DHT22;10096;51.112;6.776;2023-05-07T01:23:33;16.10;1.00
19868;DHT22;10096;51.112;6.776;2023-05-07T01:26:02;16.00;1.00
19868;DHT22;10096;51.112;6.776;2023-05-07T01:28:30;16.00;1.00
19868;DHT22;10096;51.112;6.776;2023-05-07T01:31:02;16.10;1.00
19868;DHT22;10096;51.112;6.776;2023-05-07T01:33:33;15.90;9.50
19868;DHT22;10096;51.112;6.776;2023-05-07T01:36:01;15.80;1.00
19868;DHT22;10096;51.112;6.776;2023-05-07T01:38:33;15.70;46.00
19868;DHT22;10096;51.112;6.776;2023-05-07T01:41:02;15.80;82.90
19868;DHT22;10096;51.112;6.776;2023-05-07T01:43:31;15.80;99.90
19868;DHT22;10096;51.112;6.776;2023-05-07T01:46:00;15.90;99.90
19868;DHT22;10096;51.112;6.776;2023-05-07T01:48:29;15.80;47.30
19868;DHT22;10096;51.112;6.776;2023-05-07T01:50:57;15.80;33.10
19868;DHT22;10096;51.112;6.776;2023-05-07T01:53:27;15.90;62.10
19868;DHT22;10096;51.112;6.776;2023-05-07T01:55:57;15.90;1.00
19868;DHT22;10096;51.112;6.776;2023-05-07T01:58:24;15.90;1.00
19868;DHT22;10096;51.112;6.776;2023-05-07T02:00:54;15.90;1.00
19868;DHT22;10096;51.112;6.776;2023-05-07T02:03:22;15.90;1.00
19868;DHT22;10096;51.112;6.776;2023-05-07T02:05:53;15.90;1.00
19868;DHT22;10096;51.112;6.776;2023-05-07T02:08:21;15.80;1.00
19868;DHT22;10096;51.112;6.776;2023-05-07T02:10:49;15.70;1.00
19868;DHT22;10096;51.112;6.776;2023-05-07T02:13:19;15.70;38.20
19868;DHT22;10096;51.112;6.776;2023-05-07T02:15:47;15.70;74.10
19868;DHT22;10096;51.112;6.776;2023-05-07T02:18:17;15.60;13.10
19868;DHT22;10096;51.112;6.776;2023-05-07T02:20:47;15.30;24.40
19868;DHT22;10096;51.112;6.776;2023-05-07T02:23:15;15.60;11.60
19868;DHT22;10096;51.112;6.776;2023-05-07T02:25:43;15.70;1.00
19868;DHT22;10096;51.112;6.776;2023-05-07T02:28:12;15.40;1.30
19868;DHT22;10096;51.112;6.776;2023-05-07T02:30:41;15.40;28.60
19868;DHT22;10096;51.112;6.776;2023-05-07T02:33:09;15.30;57.90
19868;DHT22;10096;51.112;6.776;2023-05-07T02:35:38;15.30;99.90
19868;DHT22;10096;51.112;6.776;2023-05-07T02:38:06;15.30;33.60
19868;DHT22;10096;51.112;6.776;2023-05-07T02:40:37;14.80;11.90
19868;DHT22;10096;51.112;6.776;2023-05-07T02:43:06;15.00;1.00
19868;DHT22;10096;51.112;6.776;2023-05-07T02:45:33;14.90;99.90
19868;DHT22;10096;51.112;6.776;2023-05-07T02:48:04;14.90;99.90
19868;DHT22;10096;51.112;6.776;2023-05-07T02:50:33;14.80;99.90
19868;DHT22;10096;51.112;6.776;2023-05-07T02:53:00;14.80;99.90
19868;DHT22;10096;51.112;6.776;2023-05-07T02:55:29;14.80;99.90
19868;DHT22;10096;51.112;6.776;2023-05-07T02:58:00;14.70;99.90
19868;DHT22;10096;51.112;6.776;2023-05-07T03:00:28;14.60;99.90
19868;DHT22;10096;51.112;6.776;2023-05-07T03:02:56;14.70;99.90
19868;DHT22;10096;51.112;6.776;2023-05-07T03:05:27;14.70;1.00
19868;DHT22;10096;51.112;6.776;2023-05-07T03:07:55;14.50;1.00
19868;DHT22;10096;51.112;6.776;2023-05-07T03:10:23;14.70;1.00
19868;DHT22;10096;51.112;6.776;2023-05-07T03:12:51;14.70;1.00
19868;DHT22;10096;51.112;6.776;2023-05-07T03:15:20;14.70;1.00
19868;DHT22;10096;51.112;6.776;2023-05-07T03:17:51;14.80;1.00
19868;DHT22;10096;51.112;6.776;2023-05-07T03:20:21;14.80;1.00
19868;DHT22;10096;51.112;6.776;2023-05-07T03:22:51;14.90;1.00
19868;DHT22;10096;51.112;6.776;2023-05-07T03:25:19;14.70;99.90
19868;DHT22;10096;51.112;6.776;2023-05-07T03:27:47;14.80;99.90
19868;DHT22;10096;51.112;6.776;2023-05-07T03:30:16;14.80;99.90
19868;DHT22;10096;51.112;6.776;2023-05-07T03:32:43;14.70;99.90
19868;DHT22;10096;51.112;6.776;2023-05-07T03:35:12;14.70;99.90
19868;DHT22;10096;51.112;6.776;2023-05-07T03:37:40;14.60;99.90
19868;DHT22;10096;51.112;6.776;2023-05-07T03:40:11;14.70;99.90
19868;DHT22;10096;51.112;6.776;2023-05-07T03:42:39;14.70;99.90
19868;DHT22;10096;51.112;6.776;2023-05-07T03:45:08;14.70;99.90
19868;DHT22;10096;51.112;6.776;2023-05-07T03:47:36;14.70;98.80
19868;DHT22;10096;51.112;6.776;2023-05-07T03:50:07;14.70;49.90
19868;DHT22;10096;51.112;6.776;2023-05-07T03:52:36;14.70;1.00
19868;DHT22;10096;51.112;6.776;2023-05-07T03:55:05;14.70;13.30
19868;DHT22;10096;51.112;6.776;2023-05-07T03:57:37;14.70;79.10
19868;DHT22;10096;51.112;6.776;2023-05-07T04:00:07;14.80;15.90
19868;DHT22;10096;51.112;6.776;2023-05-07T04:02:38;14.40;25.80
19868;DHT22;10096;51.112;6.776;2023-05-07T04:05:07;14.60;1.00
19868;DHT22;10096;51.112;6.776;2023-05-07T04:07:35;14.70;1.00
19868;DHT22;10096;51.112;6.776;2023-05-07T04:10:03;14.60;1.00
19868;DHT22;10096;51.112;6.776;2023-05-07T04:12:31;14.70;1.00
19868;DHT22;10096;51.112;6.776;2023-05-07T04:15:01;14.60;1.00
19868;DHT22;10096;51.112;6.776;2023-05-07T04:17:30;14.40;1.00
19868;DHT22;10096;51.112;6.776;2023-05-07T04:19:58;14.80;1.00
19868;DHT22;10096;51.112;6.776;2023-05-07T04:22:29;15.20;1.00
19868;DHT22;10096;51.112;6.776;2023-05-07T04:25:01;15.20;1.00
19868;DHT22;10096;51.112;6.776;2023-05-07T04:27:29;15.20;1.00
19868;DHT22;10096;51.112;6.776;2023-05-07T04:29:57;15.30;1.00
19868;DHT22;10096;51.112;6.776;2023-05-07T04:32:28;15.60;1.00
19868;DHT22;10096;51.112;6.776;2023-05-07T04:34:58;15.50;1.00
19868;DHT22;10096;51.112;6.776;2023-05-07T04:37:26;15.70;99.90
19868;DHT22;10096;51.112;6.776;2023-05-07T04:40:00;15.90;99.90
19868;DHT22;10096;51.112;6.776;2023-05-07T04:42:28;15.80;99.90
19868;DHT22;10096;51.112;6.776;2023-05-07T04:44:57;15.80;99.90
19868;DHT22;10096;51.112;6.776;2023-05-07T04:47:27;15.90;99.90
19868;DHT22;10096;51.112;6.776;2023-05-07T04:49:54;15.80;99.90
19868;DHT22;10096;51.112;6.776;2023-05-07T04:52:23;15.50;99.90
19868;DHT22;10096;51.112;6.776;2023-05-07T04:54:51;15.90;99.90
19868;DHT22;10096;51.112;6.776;2023-05-07T04:57:18;16.00;99.90
19868;DHT22;10096;51.112;6.776;2023-05-07T04:59:47;16.10;99.90
19868;DHT22;10096;51.112;6.776;2023-05-07T05:02:16;16.20;99.90
19868;DHT22;10096;51.112;6.776;2023-05-07T05:04:47;15.80;99.90
19868;DHT22;10096;51.112;6.776;2023-05-07T05:07:17;16.10;99.90
19868;DHT22;10096;51.112;6.776;2023-05-07T05:09:45;15.80;99.90
19868;DHT22;10096;51.112;6.776;2023-05-07T05:12:16;15.70;99.90
19868;DHT22;10096;51.112;6.776;2023-05-07T05:14:44;15.80;1.00
19868;DHT22;10096;51.112;6.776;2023-05-07T05:17:15;15.80;1.00
19868;DHT22;10096;51.112;6.776;2023-05-07T05:19:43;15.90;1.00
19868;DHT22;10096;51.112;6.776;2023-05-07T05:22:12;15.90;99.90
19868;DHT22;10096;51.112;6.776;2023-05-07T05:24:44;16.00;99.90
19868;DHT22;10096;51.112;6.776;2023-05-07T05:27:12;16.00;99.90
19868;DHT22;10096;51.112;6.776;2023-05-07T05:29:42;16.00;1.00
19868;DHT22;10096;51.112;6.776;2023-05-07T05:32:09;16.10;99.90
19868;DHT22;10096;51.112;6.776;2023-05-07T05:34:38;16.10;1.00
19868;DHT22;10096;51.112;6.776;2023-05-07T05:37:09;16.20;99.90
19868;DHT22;10096;51.112;6.776;2023-05-07T05:39:44;16.20;99.90
19868;DHT22;10096;51.112;6.776;2023-05-07T05:42:12;16.20;1.00
19868;DHT22;10096;51.112;6.776;2023-05-07T05:44:41;16.20;1.00
19868;DHT22;10096;51.112;6.776;2023-05-07T05:47:09;16.30;99.90
19868;DHT22;10096;51.112;6.776;2023-05-07T05:49:39;16.30;99.90
19868;DHT22;10096;51.112;6.776;2023-05-07T05:52:11;16.40;99.90
19868;DHT22;10096;51.112;6.776;2023-05-07T05:54:41;16.30;99.90
19868;DHT22;10096;51.112;6.776;2023-05-07T05:57:11;16.40;99.90
19868;DHT22;10096;51.112;6.776;2023-05-07T05:59:39;16.60;99.90
19868;DHT22;10096;51.112;6.776;2023-05-07T06:02:08;16.70;99.90
19868;DHT22;10096;51.112;6.776;2023-05-07T06:04:36;16.70;99.90
19868;DHT22;10096;51.112;6.776;2023-05-07T06:07:07;16.80;99.90
19868;DHT22;10096;51.112;6.776;2023-05-07T06:09:35;16.90;99.90
19868;DHT22;10096;51.112;6.776;2023-05-07T06:12:05;16.90;99.90
19868;DHT22;10096;51.112;6.776;2023-05-07T06:14:34;16.90;99.90
19868;DHT22;10096;51.112;6.776;2023-05-07T06:17:02;17.10;99.90
19868;DHT22;10096;51.112;6.776;2023-05-07T06:19:32;17.10;99.90
19868;DHT22;10096;51.112;6.776;2023-05-07T06:22:01;17.30;99.90
19868;DHT22;10096;51.112;6.776;2023-05-07T06:24:29;17.30;46.80
19868;DHT22;10096;51.112;6.776;2023-05-07T06:26:57;17.60;50.20
19868;DHT22;10096;51.112;6.776;2023-05-07T06:29:27;17.70;11.40
19868;DHT22;10096;51.112;6.776;2023-05-07T06:32:06;18.30;1.00
19868;DHT22;10096;51.112;6.776;2023-05-07T06:34:35;18.60;1.00
19868;DHT22;10096;51.112;6.776;2023-05-07T06:37:03;18.40;1.00
19868;DHT22;10096;51.112;6.776;2023-05-07T06:39:31;19.00;1.00
19868;DHT22;10096;51.112;6.776;2023-05-07T06:42:06;19.00;1.00
19868;DHT22;10096;51.112;6.776;2023-05-07T06:44:36;19.10;1.00
19868;DHT22;10096;51.112;6.776;2023-05-07T06:47:07;19.10;1.00
19868;DHT22;10096;51.112;6.776;2023-05-07T06:49:35;19.60;1.00
19868;DHT22;10096;51.112;6.776;2023-05-07T06:52:03;19.40;1.00
19868;DHT22;10096;51.112;6.776;2023-05-07T06:54:34;19.40;1.00
19868;DHT22;10096;51.112;6.776;2023-05-07T06:57:07;19.70;1.00
19868;DHT22;10096;51.112;6.776;2023-05-07T06:59:37;19.80;1.00
19868;DHT22;10096;51.112;6.776;2023-05-07T07:02:05;20.50;1.00
19868;DHT22;10096;51.112;6.776;2023-05-07T07:04:36;21.10;1.00
19868;DHT22;10096;51.112;6.776;2023-05-07T07:07:03;21.60;1.00
19868;DHT22;10096;51.112;6.776;2023-05-07T07:09:36;21.70;1.00
19868;DHT22;10096;51.112;6.776;2023-05-07T07:12:06;21.70;1.00
19868;DHT22;10096;51.112;6.776;2023-05-07T07:14:42;21.80;1.00
19868;DHT22;10096;51.112;6.776;2023-05-07T07:17:10;22.10;1.00
19868;DHT22;10096;51.112;6.776;2023-05-07T07:19:41;22.40;1.00
19868;DHT22;10096;51.112;6.776;2023-05-07T07:22:09;22.50;1.00
19868;DHT22;10096;51.112;6.776;2023-05-07T07:24:37;22.80;1.00
19868;DHT22;10096;51.112;6.776;2023-05-07T07:27:04;23.40;99.90
19868;DHT22;10096;51.112;6.776;2023-05-07T07:29:33;23.30;99.90
19868;DHT22;10096;51.112;6.776;2023-05-07T07:32:04;22.90;99.90
19868;DHT22;10096;51.112;6.776;2023-05-07T07:34:32;23.20;99.90
19868;DHT22;10096;51.112;6.776;2023-05-07T07:37:00;23.70;99.90
19868;DHT22;10096;51.112;6.776;2023-05-07T07:39:31;23.80;99.90
19868;DHT22;10096;51.112;6.776;2023-05-07T07:42:04;24.00;99.90
19868;DHT22;10096;51.112;6.776;2023-05-07T07:44:35;24.00;99.90
19868;DHT22;10096;51.112;6.776;2023-05-07T07:47:07;23.70;99.90
19868;DHT22;10096;51.112;6.776;2023-05-07T07:49:35;23.90;99.90
19868;DHT22;10096;51.112;6.776;2023-05-07T07:52:03;24.10;99.90
19868;DHT22;10096;51.112;6.776;2023-05-07T07:54:31;24.00;99.90
19868;DHT22;10096;51.112;6.776;2023-05-07T07:57:01;24.00;99.90
19868;DHT22;10096;51.112;6.776;2023-05-07T07:59:31;23.80;99.90
19868;DHT22;10096;51.112;6.776;2023-05-07T08:02:01;23.80;99.90
19868;DHT22;10096;51.112;6.776;2023-05-07T08:04:36;23.50;99.90
19868;DHT22;10096;51.112;6.776;2023-05-07T08:07:08;23.30;99.90
19868;DHT22;10096;51.112;6.776;2023-05-07T08:09:37;23.10;99.90
19868;DHT22;10096;51.112;6.776;2023-05-07T08:12:05;23.10;99.90
19868;DHT22;10096;51.112;6.776;2023-05-07T08:14:33;23.30;99.90
19868;DHT22;10096;51.112;6.776;2023-05-07T08:17:06;23.30;99.90
19868;DHT22;10096;51.112;6.776;2023-05-07T08:19:37;24.20;99.90
19868;DHT22;10096;51.112;6.776;2023-05-07T08:22:10;24.60;99.90
19868;DHT22;10096;51.112;6.776;2023-05-07T08:24:39;24.90;99.90
19868;DHT22;10096;51.112;6.776;2023-05-07T08:27:07;24.90;99.90
19868;DHT22;10096;51.112;6.776;2023-05-07T08:29:35;25.10;99.90
19868;DHT22;10096;51.112;6.776;2023-05-07T08:32:02;25.50;99.90
19868;DHT22;10096;51.112;6.776;2023-05-07T08:34:33;25.50;99.90
19868;DHT22;10096;51.112;6.776;2023-05-07T08:37:05;24.80;99.90
19868;DHT22;10096;51.112;6.776;2023-05-07T08:39:35;24.20;99.90
19868;DHT22;10096;51.112;6.776;2023-05-07T08:42:04;23.80;99.90
19868;DHT22;10096;51.112;6.776;2023-05-07T08:44:34;23.60;99.90
19868;DHT22;10096;51.112;6.776;2023-05-07T08:47:02;23.70;99.90
19868;DHT22;10096;51.112;6.776;2023-05-07T08:49:31;23.40;99.90
19868;DHT22;10096;51.112;6.776;2023-05-07T08:52:02;23.50;99.90
19868;DHT22;10096;51.112;6.776;2023-05-07T08:54:32;23.40;99.90
19868;DHT22;10096;51.112;6.776;2023-05-07T08:57:01;23.40;99.90
19868;DHT22;10096;51.112;6.776;2023-05-07T08:59:32;23.40;99.90
19868;DHT22;10096;51.112;6.776;2023-05-07T09:02:00;23.30;99.90
19868;DHT22;10096;51.112;6.776;2023-05-07T09:04:28;23.30;99.90
19868;DHT22;10096;51.112;6.776;2023-05-07T09:07:00;23.30;99.90
19868;DHT22;10096;51.112;6.776;2023-05-07T09:09:33;23.70;99.90
19868;DHT22;10096;51.112;6.776;2023-05-07T09:12:01;24.00;99.90
19868;DHT22;10096;51.112;6.776;2023-05-07T09:14:37;24.40;99.90
19868;DHT22;10096;51.112;6.776;2023-05-07T09:17:05;24.40;99.90
19868;DHT22;10096;51.112;6.776;2023-05-07T09:19:33;24.50;99.90
19868;DHT22;10096;51.112;6.776;2023-05-07T09:22:05;24.70;99.90
19868;DHT22;10096;51.112;6.776;2023-05-07T09:24:37;25.10;99.90
19868;DHT22;10096;51.112;6.776;2023-05-07T09:27:04;25.50;99.90
19868;DHT22;10096;51.112;6.776;2023-05-07T09:29:40;25.90;99.90
19868;DHT22;10096;51.112;6.776;2023-05-07T09:32:09;26.10;99.90
19868;DHT22;10096;51.112;6.776;2023-05-07T09:34:37;26.10;99.90
19868;DHT22;10096;51.112;6.776;2023-05-07T09:37:07;26.20;99.90
19868;DHT22;10096;51.112;6.776;2023-05-07T09:39:50;26.00;99.90
19868;DHT22;10096;51.112;6.776;2023-05-07T09:42:23;25.70;99.90
19868;DHT22;10096;51.112;6.776;2023-05-07T09:44:52;25.90;99.90
19868;DHT22;10096;51.112;6.776;2023-05-07T09:47:24;26.20;99.90
19868;DHT22;10096;51.112;6.776;2023-05-07T09:49:56;26.00;99.90
19868;DHT22;10096;51.112;6.776;2023-05-07T09:52:28;25.60;99.90
19868;DHT22;10096;51.112;6.776;2023-05-07T09:55:00;25.50;99.90
19868;DHT22;10096;51.112;6.776;2023-05-07T09:57:30;25.40;99.90
19868;DHT22;10096;51.112;6.776;2023-05-07T10:00:03;25.40;99.90
19868;DHT22;10096;51.112;6.776;2023-05-07T10:02:31;25.30;99.90
19868;DHT22;10096;51.112;6.776;2023-05-07T10:05:06;25.40;99.90
19868;DHT22;10096;51.112;6.776;2023-05-07T10:07:33;25.50;99.90
19868;DHT22;10096;51.112;6.776;2023-05-07T10:10:07;25.40;99.90
19868;DHT22;10096;51.112;6.776;2023-05-07T10:12:50;25.50;99.90
19868;DHT22;10096;51.112;6.776;2023-05-07T10:15:28;25.60;99.90
19868;DHT22;10096;51.112;6.776;2023-05-07T10:17:57;25.80;99.90
19868;DHT22;10096;51.112;6.776;2023-05-07T10:20:34;26.10;99.90
19868;DHT22;10096;51.112;6.776;2023-05-07T10:23:04;25.80;99.90
19868;DHT22;10096;51.112;6.776;2023-05-07T10:25:36;25.90;99.90
19868;DHT22;10096;51.112;6.776;2023-05-07T10:28:07;25.90;99.90
19868;DHT22;10096;51.112;6.776;2023-05-07T10:30:49;26.00;99.90
19868;DHT22;10096;51.112;6.776;2023-05-07T10:33:29;26.10;99.90
19868;DHT22;10096;51.112;6.776;2023-05-07T10:36:00;25.50;99.90
19868;DHT22;10096;51.112;6.776;2023-05-07T10:38:34;26.00;99.90
19868;DHT22;10096;51.112;6.776;2023-05-07T10:41:05;25.90;99.90
19868;DHT22;10096;51.112;6.776;2023-05-07T10:43:40;25.90;99.90
19868;DHT22;10096;51.112;6.776;2023-05-07T10:46:17;25.60;99.90
19868;DHT22;10096;51.112;6.776;2023-05-07T10:49:06;25.70;99.90
19868;DHT22;10096;51.112;6.776;2023-05-07T10:51:36;25.80;99.90
19868;DHT22;10096;51.112;6.776;2023-05-07T10:54:21;26.10;99.90
19868;DHT22;10096;51.112;6.776;2023-05-07T10:56:51;26.00;99.90
19868;DHT22;10096;51.112;6.776;2023-05-07T10:59:33;26.10;99.90
19868;DHT22;10096;51.112;6.776;2023-05-07T11:02:06;26.10;99.90
19868;DHT22;10096;51.112;6.776;2023-05-07T11:04:36;26.10;99.90
19868;DHT22;10096;51.112;6.776;2023-05-07T11:07:26;26.10;99.90
19868;DHT22;10096;51.112;6.776;2023-05-07T11:09:58;26.30;99.90
19868;DHT22;10096;51.112;6.776;2023-05-07T11:12:56;26.20;99.90
19868;DHT22;10096;51.112;6.776;2023-05-07T11:15:43;26.10;99.90
19868;DHT22;10096;51.112;6.776;2023-05-07T11:18:14;26.50;99.90
19868;DHT22;10096;51.112;6.776;2023-05-07T11:20:51;26.50;99.90
19868;DHT22;10096;51.112;6.776;2023-05-07T11:23:56;26.70;99.90
19868;DHT22;10096;51.112;6.776;2023-05-07T11:26:31;27.10;99.90
19868;DHT22;10096;51.112;6.776;2023-05-07T11:29:13;27.10;99.90
19868;DHT22;10096;51.112;6.776;2023-05-07T11:31:41;26.70;99.90
19868;DHT22;10096;51.112;6.776;2023-05-07T11:34:12;26.70;99.90
19868;DHT22;10096;51.112;6.776;2023-05-07T11:36:47;26.80;99.90
19868;DHT22;10096;51.112;6.776;2023-05-07T11:39:26;27.00;99.90
19868;DHT22;10096;51.112;6.776;2023-05-07T11:41:55;27.10;99.90
19868;DHT22;10096;51.112;6.776;2023-05-07T11:44:24;27.30;99.90
19868;DHT22;10096;51.112;6.776;2023-05-07T11:46:53;27.20;99.90
19868;DHT22;10096;51.112;6.776;2023-05-07T11:49:20;27.30;99.90
19868;DHT22;10096;51.112;6.776;2023-05-07T11:51:57;27.30;99.90
19868;DHT22;10096;51.112;6.776;2023-05-07T11:54:27;27.40;99.90
19868;DHT22;10096;51.112;6.776;2023-05-07T11:57:04;27.40;99.90
19868;DHT22;10096;51.112;6.776;2023-05-07T11:59:41;27.20;99.90
19868;DHT22;10096;51.112;6.776;2023-05-07T12:02:14;27.20;99.90
19868;DHT22;10096;51.112;6.776;2023-05-07T12:04:50;27.30;99.90
19868;DHT22;10096;51.112;6.776;2023-05-07T12:07:18;27.30;99.90
19868;DHT22;10096;51.112;6.776;2023-05-07T12:09:48;27.40;99.90
19868;DHT22;10096;51.112;6.776;2023-05-07T12:12:24;27.20;99.90
19868;DHT22;10096;51.112;6.776;2023-05-07T12:14:54;27.10;99.90
19868;DHT22;10096;51.112;6.776;2023-05-07T12:17:25;27.20;99.90
19868;DHT22;10096;51.112;6.776;2023-05-07T12:19:54;27.40;99.90
19868;DHT22;10096;51.112;6.776;2023-05-07T12:22:33;27.40;99.90
19868;DHT22;10096;51.112;6.776;2023-05-07T12:25:03;27.30;99.90
19868;DHT22;10096;51.112;6.776;2023-05-07T12:27:37;26.80;99.90
19868;DHT22;10096;51.112;6.776;2023-05-07T12:30:13;26.80;99.90
19868;DHT22;10096;51.112;6.776;2023-05-07T12:32:54;26.70;99.90
19868;DHT22;10096;51.112;6.776;2023-05-07T12:35:28;26.70;99.90
19868;DHT22;10096;51.112;6.776;2023-05-07T12:38:00;26.60;99.90
19868;DHT22;10096;51.112;6.776;2023-05-07T12:40:36;26.50;99.90
19868;DHT22;10096;51.112;6.776;2023-05-07T12:43:06;26.50;99.90
19868;DHT22;10096;51.112;6.776;2023-05-07T12:45:39;26.40;99.90
19868;DHT22;10096;51.112;6.776;2023-05-07T12:48:10;26.30;99.90
19868;DHT22;10096;51.112;6.776;2023-05-07T12:50:43;26.00;99.90
19868;DHT22;10096;51.112;6.776;2023-05-07T12:53:11;25.80;99.90
19868;DHT22;10096;51.112;6.776;2023-05-07T12:55:43;25.70;99.90
19868;DHT22;10096;51.112;6.776;2023-05-07T12:58:21;25.60;99.90
19868;DHT22;10096;51.112;6.776;2023-05-07T13:01:00;25.70;99.90
19868;DHT22;10096;51.112;6.776;2023-05-07T13:03:31;25.50;99.90
19868;DHT22;10096;51.112;6.776;2023-05-07T13:06:02;25.60;99.90
19868;DHT22;10096;51.112;6.776;2023-05-07T13:08:32;25.60;99.90
19868;DHT22;10096;51.112;6.776;2023-05-07T13:11:02;25.40;99.90
19868;DHT22;10096;51.112;6.776;2023-05-07T13:13:37;25.30;99.90
19868;DHT22;10096;51.112;6.776;2023-05-07T13:16:14;25.30;99.90
19868;DHT22;10096;51.112;6.776;2023-05-07T13:18:47;25.30;99.90
19868;DHT22;10096;51.112;6.776;2023-05-07T13:21:25;25.20;99.90
19868;DHT22;10096;51.112;6.776;2023-05-07T13:23:59;25.50;99.90
19868;DHT22;10096;51.112;6.776;2023-05-07T13:26:29;25.70;99.90
19868;DHT22;10096;51.112;6.776;2023-05-07T13:28:56;25.70;99.90
19868;DHT22;10096;51.112;6.776;2023-05-07T13:31:25;25.80;99.90
19868;DHT22;10096;51.112;6.776;2023-05-07T13:33:53;26.00;99.90
19868;DHT22;10096;51.112;6.776;2023-05-07T13:36:22;25.90;99.90
19868;DHT22;10096;51.112;6.776;2023-05-07T13:38:52;26.00;99.90
19868;DHT22;10096;51.112;6.776;2023-05-07T13:41:27;26.10;99.90
19868;DHT22;10096;51.112;6.776;2023-05-07T13:43:55;25.70;99.90
19868;DHT22;10096;51.112;6.776;2023-05-07T13:46:27;25.60;99.90
19868;DHT22;10096;51.112;6.776;2023-05-07T13:48:58;25.50;99.90
19868;DHT22;10096;51.112;6.776;2023-05-07T13:51:32;25.40;99.90
19868;DHT22;10096;51.112;6.776;2023-05-07T13:54:02;25.30;99.90
19868;DHT22;10096;51.112;6.776;2023-05-07T13:56:35;25.30;99.90
19868;DHT22;10096;51.112;6.776;2023-05-07T14:01:40;25.00;99.90
19868;DHT22;10096;51.112;6.776;2023-05-07T14:04:07;24.90;99.90
19868;DHT22;10096;51.112;6.776;2023-05-07T14:06:35;24.90;99.90
19868;DHT22;10096;51.112;6.776;2023-05-07T14:09:03;24.70;99.90
19868;DHT22;10096;51.112;6.776;2023-05-07T14:11:34;24.50;99.90
19868;DHT22;10096;51.112;6.776;2023-05-07T14:14:09;23.50;99.90
19868;DHT22;10096;51.112;6.776;2023-05-07T14:16:44;23.10;99.90
19868;DHT22;10096;51.112;6.776;2023-05-07T14:19:13;22.60;99.90
19868;DHT22;10096;51.112;6.776;2023-05-07T14:21:42;22.30;99.90
19868;DHT22;10096;51.112;6.776;2023-05-07T14:24:13;21.90;99.90
19868;DHT22;10096;51.112;6.776;2023-05-07T14:26:43;21.80;99.90
19868;DHT22;10096;51.112;6.776;2023-05-07T14:29:12;21.50;99.90
19868;DHT22;10096;51.112;6.776;2023-05-07T14:31:50;21.80;99.90
19868;DHT22;10096;51.112;6.776;2023-05-07T14:34:27;21.90;99.90
19868;DHT22;10096;51.112;6.776;2023-05-07T14:36:58;21.80;99.90
19868;DHT22;10096;51.112;6.776;2023-05-07T14:39:29;21.80;99.90
19868;DHT22;10096;51.112;6.776;2023-05-07T14:42:02;21.50;99.90
19868;DHT22;10096;51.112;6.776;2023-05-07T14:44:33;21.60;99.90
19868;DHT22;10096;51.112;6.776;2023-05-07T14:47:15;21.30;99.90
19868;DHT22;10096;51.112;6.776;2023-05-07T14:49:45;21.30;99.90
19868;DHT22;10096;51.112;6.776;2023-05-07T14:52:13;21.10;99.90
19868;DHT22;10096;51.112;6.776;2023-05-07T14:54:47;21.10;1.00
19868;DHT22;10096;51.112;6.776;2023-05-07T14:57:17;21.00;1.00
19868;DHT22;10096;51.112;6.776;2023-05-07T14:59:48;21.20;1.00
19868;DHT22;10096;51.112;6.776;2023-05-07T15:02:27;21.40;1.00
19868;DHT22;10096;51.112;6.776;2023-05-07T15:04:58;21.50;1.00
19868;DHT22;10096;51.112;6.776;2023-05-07T15:07:28;21.30;1.00
19868;DHT22;10096;51.112;6.776;2023-05-07T15:10:03;21.30;1.00
19868;DHT22;10096;51.112;6.776;2023-05-07T15:12:35;21.40;1.00
19868;DHT22;10096;51.112;6.776;2023-05-07T15:15:08;21.30;99.90
19868;DHT22;10096;51.112;6.776;2023-05-07T15:17:39;21.20;1.00
19868;DHT22;10096;51.112;6.776;2023-05-07T15:20:13;21.30;1.00
19868;DHT22;10096;51.112;6.776;2023-05-07T15:22:43;21.20;1.00
19868;DHT22;10096;51.112;6.776;2023-05-07T15:25:11;21.20;99.90
19868;DHT22;10096;51.112;6.776;2023-05-07T15:27:43;21.20;99.90
19868;DHT22;10096;51.112;6.776;2023-05-07T15:30:14;21.30;99.90
19868;DHT22;10096;51.112;6.776;2023-05-07T15:32:48;21.20;99.90
19868;DHT22;10096;51.112;6.776;2023-05-07T15:35:17;21.20;1.00
19868;DHT22;10096;51.112;6.776;2023-05-07T15:37:49;21.20;99.90
19868;DHT22;10096;51.112;6.776;2023-05-07T15:40:18;21.00;1.00
19868;DHT22;10096;51.112;6.776;2023-05-07T15:42:50;21.00;1.00
19868;DHT22;10096;51.112;6.776;2023-05-07T15:45:22;21.00;1.00
19868;DHT22;10096;51.112;6.776;2023-05-07T15:47:55;21.00;1.00
19868;DHT22;10096;51.112;6.776;2023-05-07T15:50:23;21.10;1.00
19868;DHT22;10096;51.112;6.776;2023-05-07T15:52:51;21.00;1.00
19868;DHT22;10096;51.112;6.776;2023-05-07T15:55:21;21.00;1.00
19868;DHT22;10096;51.112;6.776;2023-05-07T15:57:50;21.10;1.00
19868;DHT22;10096;51.112;6.776;2023-05-07T16:00:20;21.10;1.00